sensor_id;sensor_type;location;lat;lon;timestamp;temperature;humidity
23267;DHT22;11802;53.160;8.214;2024-02-23T00:01:26;8.20;1.00
23267;DHT22;11802;53.160;8.214;2024-02-23T00:03:51;8.10;1.00
23267;DHT22;11802;53.160;8.214;2024-02-23T00:06:17;8.10;1.00
23267;DHT22;11802;53.160;8.214;2024-02-23T00:08:43;8.10;1.00
23267;DHT22;11802;53.160;8.214;2024-02-23T00:11:09;8.00;1.00
23267;DHT22;11802;53.160;8.214;2024-02-23T00:13:35;7.90;99.90
23267;DHT22;11802;53.160;8.214;2024-02-23T00:16:00;7.80;99.90
23267;DHT22;11802;53.160;8.214;2024-02-23T00:18:26;7.80;1.00
23267;DHT22;11802;53.160;8.214;2024-02-23T00:20:51;7.80;1.00
23267;DHT22;11802;53.160;8.214;2024-02-23T00:23:17;7.80;1.00
23267;DHT22;11802;53.160;8.214;2024-02-23T00:25:44;7.80;1.00
23267;DHT22;11802;53.160;8.214;2024-02-23T00:28:10;7.70;1.00
23267;DHT22;11802;53.160;8.214;2024-02-23T00:30:35;7.60;1.00
23267;DHT22;11802;53.160;8.214;2024-02-23T00:33:01;7.50;1.00
23267;DHT22;11802;53.160;8.214;2024-02-23T00:35:27;7.50;1.00
23267;DHT22;11802;53.160;8.214;2024-02-23T00:37:52;7.50;1.00
23267;DHT22;11802;53.160;8.214;2024-02-23T00:40:18;7.60;1.00
23267;DHT22;11802;53.160;8.214;2024-02-23T00:42:43;7.40;1.00
23267;DHT22;11802;53.160;8.214;2024-02-23T00:45:09;7.30;1.00
23267;DHT22;11802;53.160;8.214;2024-02-23T00:47:34;7.30;1.00
23267;DHT22;11802;53.160;8.214;2024-02-23T00:50:01;7.20;1.00
23267;DHT22;11802;53.160;8.214;2024-02-23T00:52:27;7.20;1.00
23267;DHT22;11802;53.160;8.214;2024-02-23T00:54:52;7.10;1.00
23267;DHT22;11802;53.160;8.214;2024-02-23T00:57:18;7.00;1.00
23267;DHT22;11802;53.160;8.214;2024-02-23T00:59:51;7.00;1.00
23267;DHT22;11802;53.160;8.214;2024-02-23T01:02:16;7.00;94.90
23267;DHT22;11802;53.160;8.214;2024-02-23T01:04:42;7.00;52.10
23267;DHT22;11802;53.160;8.214;2024-02-23T01:07:07;7.00;99.90
23267;DHT22;11802;53.160;8.214;2024-02-23T01:09:33;6.80;36.80
23267;DHT22;11802;53.160;8.214;2024-02-23T01:11:59;6.80;99.90
23267;DHT22;11802;53.160;8.214;2024-02-23T01:14:25;6.80;99.90
23267;DHT22;11802;53.160;8.214;2024-02-23T01:16:50;6.70;99.90
23267;DHT22;11802;53.160;8.214;2024-02-23T01:19:16;6.60;99.90
23267;DHT22;11802;53.160;8.214;2024-02-23T01:21:42;6.50;99.90
23267;DHT22;11802;53.160;8.214;2024-02-23T01:24:07;6.50;99.90
23267;DHT22;11802;53.160;8.214;2024-02-23T01:26:33;6.60;99.90
23267;DHT22;11802;53.160;8.214;2024-02-23T01:28:58;6.70;99.90
23267;DHT22;11802;53.160;8.214;2024-02-23T01:31:24;6.60;99.90
23267;DHT22;11802;53.160;8.214;2024-02-23T01:33:51;6.60;99.90
23267;DHT22;11802;53.160;8.214;2024-02-23T01:36:16;6.50;99.90
23267;DHT22;11802;53.160;8.214;2024-02-23T01:38:43;6.50;99.90
23267;DHT22;11802;53.160;8.214;2024-02-23T01:41:08;6.40;99.90
23267;DHT22;11802;53.160;8.214;2024-02-23T01:43:36;6.50;99.90
23267;DHT22;11802;53.160;8.214;2024-02-23T01:46:02;6.50;98.60
23267;DHT22;11802;53.160;8.214;2024-02-23T01:48:29;6.40;31.60
23267;DHT22;11802;53.160;8.214;2024-02-23T01:50:55;6.30;70.20
23267;DHT22;11802;53.160;8.214;2024-02-23T01:53:21;6.30;92.80
23267;DHT22;11802;53.160;8.214;2024-02-23T01:55:47;6.40;99.90
23267;DHT22;11802;53.160;8.214;2024-02-23T01:58:13;6.40;99.90
23267;DHT22;11802;53.160;8.214;2024-02-23T02:00:39;6.40;93.40
23267;DHT22;11802;53.160;8.214;2024-02-23T02:03:05;6.30;51.00
23267;DHT22;11802;53.160;8.214;2024-02-23T02:05:30;6.30;99.90
23267;DHT22;11802;53.160;8.214;2024-02-23T02:07:56;6.20;61.20
23267;DHT22;11802;53.160;8.214;2024-02-23T02:10:25;6.00;42.30
23267;DHT22;11802;53.160;8.214;2024-02-23T02:12:52;6.00;99.90
23267;DHT22;11802;53.160;8.214;2024-02-23T02:15:18;6.00;99.90
23267;DHT22;11802;53.160;8.214;2024-02-23T02:17:43;6.00;99.90
23267;DHT22;11802;53.160;8.214;2024-02-23T02:20:13;5.80;99.90
23267;DHT22;11802;53.160;8.214;2024-02-23T02:22:39;5.70;99.90
23267;DHT22;11802;53.160;8.214;2024-02-23T02:25:05;5.70;99.90
23267;DHT22;11802;53.160;8.214;2024-02-23T02:27:31;5.70;99.90
23267;DHT22;11802;53.160;8.214;2024-02-23T02:29:57;5.70;99.90
23267;DHT22;11802;53.160;8.214;2024-02-23T02:32:23;5.70;99.90
23267;DHT22;11802;53.160;8.214;2024-02-23T02:34:49;5.60;99.90
23267;DHT22;11802;53.160;8.214;2024-02-23T02:37:14;5.40;84.60
23267;DHT22;11802;53.160;8.214;2024-02-23T02:39:40;5.40;99.90
23267;DHT22;11802;53.160;8.214;2024-02-23T02:42:06;5.30;99.90
23267;DHT22;11802;53.160;8.214;2024-02-23T02:44:32;5.20;99.90
23267;DHT22;11802;53.160;8.214;2024-02-23T02:46:57;5.20;99.90
23267;DHT22;11802;53.160;8.214;2024-02-23T02:49:23;5.20;99.90
23267;DHT22;11802;53.160;8.214;2024-02-23T02:51:49;5.10;99.90
23267;DHT22;11802;53.160;8.214;2024-02-23T02:54:15;5.10;99.90
23267;DHT22;11802;53.160;8.214;2024-02-23T02:56:44;5.20;99.90
23267;DHT22;11802;53.160;8.214;2024-02-23T02:59:12;5.20;99.90
23267;DHT22;11802;53.160;8.214;2024-02-23T03:01:38;5.20;99.90
23267;DHT22;11802;53.160;8.214;2024-02-23T03:04:03;5.20;99.90
23267;DHT22;11802;53.160;8.214;2024-02-23T03:06:29;5.30;99.90
23267;DHT22;11802;53.160;8.214;2024-02-23T03:08:54;5.40;99.90
23267;DHT22;11802;53.160;8.214;2024-02-23T03:11:20;5.40;99.90
23267;DHT22;11802;53.160;8.214;2024-02-23T03:13:45;5.50;99.90
23267;DHT22;11802;53.160;8.214;2024-02-23T03:16:16;5.50;95.60
23267;DHT22;11802;53.160;8.214;2024-02-23T03:18:41;5.60;99.90
23267;DHT22;11802;53.160;8.214;2024-02-23T03:21:07;5.60;99.90
23267;DHT22;11802;53.160;8.214;2024-02-23T03:23:35;5.60;99.90
23267;DHT22;11802;53.160;8.214;2024-02-23T03:26:00;5.60;99.90
23267;DHT22;11802;53.160;8.214;2024-02-23T03:28:26;5.60;99.90
23267;DHT22;11802;53.160;8.214;2024-02-23T03:30:52;5.60;99.90
23267;DHT22;11802;53.160;8.214;2024-02-23T03:33:17;5.60;99.90
23267;DHT22;11802;53.160;8.214;2024-02-23T03:35:43;5.60;99.90
23267;DHT22;11802;53.160;8.214;2024-02-23T03:38:09;5.60;99.90
23267;DHT22;11802;53.160;8.214;2024-02-23T03:40:34;5.50;99.90
23267;DHT22;11802;53.160;8.214;2024-02-23T03:43:01;5.50;99.90
23267;DHT22;11802;53.160;8.214;2024-02-23T03:45:27;5.50;99.90
23267;DHT22;11802;53.160;8.214;2024-02-23T03:47:53;5.50;99.90
23267;DHT22;11802;53.160;8.214;2024-02-23T03:50:19;5.50;99.90
23267;DHT22;11802;53.160;8.214;2024-02-23T03:52:45;5.50;99.90
23267;DHT22;11802;53.160;8.214;2024-02-23T03:55:10;5.50;99.90
23267;DHT22;11802;53.160;8.214;2024-02-23T03:57:36;5.50;99.90
23267;DHT22;11802;53.160;8.214;2024-02-23T04:00:02;5.70;99.90
23267;DHT22;11802;53.160;8.214;2024-02-23T04:02:28;5.70;99.90
23267;DHT22;11802;53.160;8.214;2024-02-23T04:04:54;5.70;99.90
23267;DHT22;11802;53.160;8.214;2024-02-23T04:07:20;5.70;99.90
23267;DHT22;11802;53.160;8.214;2024-02-23T04:09:46;5.70;99.90
23267;DHT22;11802;53.160;8.214;2024-02-23T04:12:21;5.70;99.90
23267;DHT22;11802;53.160;8.214;2024-02-23T04:14:46;5.60;45.40
23267;DHT22;11802;53.160;8.214;2024-02-23T04:17:12;5.60;75.90
23267;DHT22;11802;53.160;8.214;2024-02-23T04:19:38;5.60;99.90
23267;DHT22;11802;53.160;8.214;2024-02-23T04:22:07;5.50;82.90
23267;DHT22;11802;53.160;8.214;2024-02-23T04:24:38;5.30;1.00
23267;DHT22;11802;53.160;8.214;2024-02-23T04:27:05;5.20;8.50
23267;DHT22;11802;53.160;8.214;2024-02-23T04:29:31;5.20;1.00
23267;DHT22;11802;53.160;8.214;2024-02-23T04:31:57;5.20;1.00
23267;DHT22;11802;53.160;8.214;2024-02-23T04:34:23;5.10;11.90
23267;DHT22;11802;53.160;8.214;2024-02-23T04:36:49;5.00;1.00
23267;DHT22;11802;53.160;8.214;2024-02-23T04:39:14;5.10;62.40
23267;DHT22;11802;53.160;8.214;2024-02-23T04:41:40;5.00;85.30
23267;DHT22;11802;53.160;8.214;2024-02-23T04:44:05;4.90;10.80
23267;DHT22;11802;53.160;8.214;2024-02-23T04:46:31;4.90;27.00
23267;DHT22;11802;53.160;8.214;2024-02-23T04:48:57;5.00;83.40
23267;DHT22;11802;53.160;8.214;2024-02-23T04:51:22;5.00;41.10
23267;DHT22;11802;53.160;8.214;2024-02-23T04:53:49;5.00;31.40
23267;DHT22;11802;53.160;8.214;2024-02-23T04:56:15;4.90;1.00
23267;DHT22;11802;53.160;8.214;2024-02-23T04:58:40;5.00;17.70
23267;DHT22;11802;53.160;8.214;2024-02-23T05:01:08;4.90;1.00
23267;DHT22;11802;53.160;8.214;2024-02-23T05:03:34;4.90;1.00
23267;DHT22;11802;53.160;8.214;2024-02-23T05:05:59;4.90;1.00
23267;DHT22;11802;53.160;8.214;2024-02-23T05:08:25;4.80;1.00
23267;DHT22;11802;53.160;8.214;2024-02-23T05:10:52;4.70;1.00
23267;DHT22;11802;53.160;8.214;2024-02-23T05:13:17;4.80;1.00
23267;DHT22;11802;53.160;8.214;2024-02-23T05:15:43;4.70;2.60
23267;DHT22;11802;53.160;8.214;2024-02-23T05:18:08;4.70;59.50
23267;DHT22;11802;53.160;8.214;2024-02-23T05:20:34;4.70;39.40
23267;DHT22;11802;53.160;8.214;2024-02-23T05:22:59;4.70;93.30
23267;DHT22;11802;53.160;8.214;2024-02-23T05:25:26;4.70;99.90
23267;DHT22;11802;53.160;8.214;2024-02-23T05:27:52;4.80;99.90
23267;DHT22;11802;53.160;8.214;2024-02-23T05:30:17;4.80;74.10
23267;DHT22;11802;53.160;8.214;2024-02-23T05:32:43;4.80;64.50
23267;DHT22;11802;53.160;8.214;2024-02-23T05:35:09;4.80;95.80
23267;DHT22;11802;53.160;8.214;2024-02-23T05:37:35;4.80;99.90
23267;DHT22;11802;53.160;8.214;2024-02-23T05:40:01;4.70;99.90
23267;DHT22;11802;53.160;8.214;2024-02-23T05:42:29;4.70;99.90
23267;DHT22;11802;53.160;8.214;2024-02-23T05:44:55;4.80;99.90
23267;DHT22;11802;53.160;8.214;2024-02-23T05:47:20;4.70;99.90
23267;DHT22;11802;53.160;8.214;2024-02-23T05:49:47;4.70;99.90
23267;DHT22;11802;53.160;8.214;2024-02-23T05:52:12;4.70;99.90
23267;DHT22;11802;53.160;8.214;2024-02-23T05:54:38;4.70;99.90
23267;DHT22;11802;53.160;8.214;2024-02-23T05:57:04;5.30;99.90
23267;DHT22;11802;53.160;8.214;2024-02-23T05:59:30;4.90;99.90
23267;DHT22;11802;53.160;8.214;2024-02-23T06:01:55;4.90;99.90
23267;DHT22;11802;53.160;8.214;2024-02-23T06:04:24;4.90;99.90
23267;DHT22;11802;53.160;8.214;2024-02-23T06:06:50;4.90;99.90
23267;DHT22;11802;53.160;8.214;2024-02-23T06:09:15;4.90;99.90
23267;DHT22;11802;53.160;8.214;2024-02-23T06:11:41;4.90;99.90
23267;DHT22;11802;53.160;8.214;2024-02-23T06:14:07;4.90;99.90
23267;DHT22;11802;53.160;8.214;2024-02-23T06:16:33;4.80;99.90
23267;DHT22;11802;53.160;8.214;2024-02-23T06:18:59;4.80;99.90
23267;DHT22;11802;53.160;8.214;2024-02-23T06:21:24;4.80;99.90
23267;DHT22;11802;53.160;8.214;2024-02-23T06:23:50;4.90;99.90
23267;DHT22;11802;53.160;8.214;2024-02-23T06:26:15;4.90;99.90
23267;DHT22;11802;53.160;8.214;2024-02-23T06:28:42;4.90;99.90
23267;DHT22;11802;53.160;8.214;2024-02-23T06:31:08;4.80;99.90
23267;DHT22;11802;53.160;8.214;2024-02-23T06:33:35;4.90;99.90
23267;DHT22;11802;53.160;8.214;2024-02-23T06:36:01;4.80;99.90
23267;DHT22;11802;53.160;8.214;2024-02-23T06:38:27;4.70;99.90
23267;DHT22;11802;53.160;8.214;2024-02-23T06:40:52;4.70;99.90
23267;DHT22;11802;53.160;8.214;2024-02-23T06:43:18;4.70;99.90
23267;DHT22;11802;53.160;8.214;2024-02-23T06:45:44;4.90;99.90
23267;DHT22;11802;53.160;8.214;2024-02-23T06:48:10;5.00;99.90
23267;DHT22;11802;53.160;8.214;2024-02-23T06:50:36;5.10;99.90
23267;DHT22;11802;53.160;8.214;2024-02-23T06:53:02;5.10;48.00
23267;DHT22;11802;53.160;8.214;2024-02-23T06:55:28;5.20;42.60
23267;DHT22;11802;53.160;8.214;2024-02-23T06:57:57;5.30;16.40
23267;DHT22;11802;53.160;8.214;2024-02-23T07:01:02;5.40;11.00
23267;DHT22;11802;53.160;8.214;2024-02-23T07:07:00;5.70;1.00
23267;DHT22;11802;53.160;8.214;2024-02-23T07:09:31;5.70;1.00
23267;DHT22;11802;53.160;8.214;2024-02-23T07:11:57;5.70;1.00
23267;DHT22;11802;53.160;8.214;2024-02-23T07:14:22;5.80;1.00
23267;DHT22;11802;53.160;8.214;2024-02-23T07:16:48;5.90;1.00
23267;DHT22;11802;53.160;8.214;2024-02-23T07:19:14;5.80;1.00
23267;DHT22;11802;53.160;8.214;2024-02-23T07:21:39;6.00;1.00
23267;DHT22;11802;53.160;8.214;2024-02-23T07:24:05;6.00;1.00
23267;DHT22;11802;53.160;8.214;2024-02-23T07:26:31;6.10;1.00
23267;DHT22;11802;53.160;8.214;2024-02-23T07:28:57;6.20;1.00
23267;DHT22;11802;53.160;8.214;2024-02-23T07:31:22;6.40;1.00
23267;DHT22;11802;53.160;8.214;2024-02-23T07:33:48;6.50;1.00
23267;DHT22;11802;53.160;8.214;2024-02-23T07:36:14;6.80;99.90
23267;DHT22;11802;53.160;8.214;2024-02-23T07:38:40;7.10;99.90
23267;DHT22;11802;53.160;8.214;2024-02-23T07:41:06;7.60;99.90
23267;DHT22;11802;53.160;8.214;2024-02-23T07:43:31;7.90;99.90
23267;DHT22;11802;53.160;8.214;2024-02-23T07:45:57;8.30;99.90
23267;DHT22;11802;53.160;8.214;2024-02-23T07:48:22;8.30;99.90
23267;DHT22;11802;53.160;8.214;2024-02-23T07:50:48;8.70;1.00
23267;DHT22;11802;53.160;8.214;2024-02-23T07:53:13;9.40;1.00
23267;DHT22;11802;53.160;8.214;2024-02-23T07:55:39;10.20;1.00
23267;DHT22;11802;53.160;8.214;2024-02-23T07:58:04;10.50;1.00
23267;DHT22;11802;53.160;8.214;2024-02-23T08:00:30;10.70;21.90
23267;DHT22;11802;53.160;8.214;2024-02-23T08:02:56;11.20;1.00
23267;DHT22;11802;53.160;8.214;2024-02-23T08:05:26;11.20;1.00
23267;DHT22;11802;53.160;8.214;2024-02-23T08:07:52;11.60;99.90
23267;DHT22;11802;53.160;8.214;2024-02-23T08:10:18;12.00;99.90
23267;DHT22;11802;53.160;8.214;2024-02-23T08:12:43;12.00;4.20
23267;DHT22;11802;53.160;8.214;2024-02-23T08:15:09;11.80;56.20
23267;DHT22;11802;53.160;8.214;2024-02-23T08:17:35;11.90;1.00
23267;DHT22;11802;53.160;8.214;2024-02-23T08:20:01;12.00;99.90
23267;DHT22;11802;53.160;8.214;2024-02-23T08:22:26;12.00;99.90
23267;DHT22;11802;53.160;8.214;2024-02-23T08:24:52;12.30;99.90
23267;DHT22;11802;53.160;8.214;2024-02-23T08:27:20;12.70;1.00
23267;DHT22;11802;53.160;8.214;2024-02-23T08:29:46;12.80;1.00
23267;DHT22;11802;53.160;8.214;2024-02-23T08:32:27;12.70;1.00
23267;DHT22;11802;53.160;8.214;2024-02-23T08:34:53;12.70;1.00
23267;DHT22;11802;53.160;8.214;2024-02-23T08:37:25;12.50;1.00
23267;DHT22;11802;53.160;8.214;2024-02-23T08:39:51;12.10;24.10
23267;DHT22;11802;53.160;8.214;2024-02-23T08:42:16;11.70;99.90
23267;DHT22;11802;53.160;8.214;2024-02-23T08:44:42;11.50;99.90
23267;DHT22;11802;53.160;8.214;2024-02-23T08:47:08;11.20;99.90
23267;DHT22;11802;53.160;8.214;2024-02-23T08:49:33;11.50;1.00
23267;DHT22;11802;53.160;8.214;2024-02-23T08:51:59;12.10;99.90
23267;DHT22;11802;53.160;8.214;2024-02-23T08:54:25;12.60;99.90
23267;DHT22;11802;53.160;8.214;2024-02-23T08:56:50;13.10;1.00
23267;DHT22;11802;53.160;8.214;2024-02-23T08:59:16;13.10;1.00
23267;DHT22;11802;53.160;8.214;2024-02-23T09:01:41;13.50;1.00
23267;DHT22;11802;53.160;8.214;2024-02-23T09:04:09;13.00;1.00
23267;DHT22;11802;53.160;8.214;2024-02-23T09:06:35;12.20;1.00
23267;DHT22;11802;53.160;8.214;2024-02-23T09:09:00;11.50;4.10
23267;DHT22;11802;53.160;8.214;2024-02-23T09:11:26;10.90;99.90
23267;DHT22;11802;53.160;8.214;2024-02-23T09:13:52;10.60;1.00
23267;DHT22;11802;53.160;8.214;2024-02-23T09:16:17;10.40;99.90
23267;DHT22;11802;53.160;8.214;2024-02-23T09:18:44;10.50;1.00
23267;DHT22;11802;53.160;8.214;2024-02-23T09:21:10;10.50;1.00
23267;DHT22;11802;53.160;8.214;2024-02-23T09:23:35;10.10;1.00
23267;DHT22;11802;53.160;8.214;2024-02-23T09:26:01;9.90;99.90
23267;DHT22;11802;53.160;8.214;2024-02-23T09:28:26;9.70;1.00
23267;DHT22;11802;53.160;8.214;2024-02-23T09:30:52;9.40;99.90
23267;DHT22;11802;53.160;8.214;2024-02-23T09:33:17;9.40;99.90
23267;DHT22;11802;53.160;8.214;2024-02-23T09:35:43;9.50;99.90
23267;DHT22;11802;53.160;8.214;2024-02-23T09:38:08;9.70;99.90
23267;DHT22;11802;53.160;8.214;2024-02-23T09:40:34;9.60;1.00
23267;DHT22;11802;53.160;8.214;2024-02-23T09:43:03;9.50;99.90
23267;DHT22;11802;53.160;8.214;2024-02-23T09:45:31;9.20;1.00
23267;DHT22;11802;53.160;8.214;2024-02-23T09:47:57;9.10;1.00
23267;DHT22;11802;53.160;8.214;2024-02-23T09:50:24;9.00;99.90
23267;DHT22;11802;53.160;8.214;2024-02-23T09:52:50;9.00;99.90
23267;DHT22;11802;53.160;8.214;2024-02-23T09:55:21;8.90;1.00
23267;DHT22;11802;53.160;8.214;2024-02-23T09:57:48;8.90;1.00
23267;DHT22;11802;53.160;8.214;2024-02-23T10:00:16;9.00;1.00
23267;DHT22;11802;53.160;8.214;2024-02-23T10:02:45;8.80;99.90
23267;DHT22;11802;53.160;8.214;2024-02-23T10:05:11;8.80;99.90
23267;DHT22;11802;53.160;8.214;2024-02-23T10:07:38;8.80;1.00
23267;DHT22;11802;53.160;8.214;2024-02-23T10:10:07;8.80;1.00
23267;DHT22;11802;53.160;8.214;2024-02-23T10:12:34;8.80;99.90
23267;DHT22;11802;53.160;8.214;2024-02-23T10:15:00;8.80;99.90
23267;DHT22;11802;53.160;8.214;2024-02-23T10:17:29;8.70;99.90
23267;DHT22;11802;53.160;8.214;2024-02-23T10:20:03;8.70;1.00
23267;DHT22;11802;53.160;8.214;2024-02-23T10:22:30;8.50;99.90
23267;DHT22;11802;53.160;8.214;2024-02-23T10:24:56;8.50;99.90
23267;DHT22;11802;53.160;8.214;2024-02-23T10:27:23;8.30;1.00
23267;DHT22;11802;53.160;8.214;2024-02-23T10:29:51;8.40;99.90
23267;DHT22;11802;53.160;8.214;2024-02-23T10:32:18;8.50;1.00
23267;DHT22;11802;53.160;8.214;2024-02-23T10:34:47;8.60;1.00
23267;DHT22;11802;53.160;8.214;2024-02-23T10:37:14;8.60;1.00
23267;DHT22;11802;53.160;8.214;2024-02-23T10:39:39;8.90;99.90
23267;DHT22;11802;53.160;8.214;2024-02-23T10:42:09;8.70;1.00
23267;DHT22;11802;53.160;8.214;2024-02-23T10:44:37;8.80;1.00
23267;DHT22;11802;53.160;8.214;2024-02-23T10:47:03;8.80;1.00
23267;DHT22;11802;53.160;8.214;2024-02-23T10:49:29;8.90;1.00
23267;DHT22;11802;53.160;8.214;2024-02-23T10:51:56;8.80;99.90
23267;DHT22;11802;53.160;8.214;2024-02-23T10:54:22;8.70;1.00
23267;DHT22;11802;53.160;8.214;2024-02-23T10:56:49;8.60;1.00
23267;DHT22;11802;53.160;8.214;2024-02-23T10:59:17;8.60;1.00
23267;DHT22;11802;53.160;8.214;2024-02-23T11:01:46;8.80;1.00
23267;DHT22;11802;53.160;8.214;2024-02-23T11:04:13;8.90;1.00
23267;DHT22;11802;53.160;8.214;2024-02-23T11:06:39;9.00;1.00
23267;DHT22;11802;53.160;8.214;2024-02-23T11:09:06;9.10;1.00
23267;DHT22;11802;53.160;8.214;2024-02-23T11:11:36;9.10;1.00
23267;DHT22;11802;53.160;8.214;2024-02-23T11:14:03;9.10;1.00
23267;DHT22;11802;53.160;8.214;2024-02-23T11:16:32;9.20;1.00
23267;DHT22;11802;53.160;8.214;2024-02-23T11:19:04;9.10;1.00
23267;DHT22;11802;53.160;8.214;2024-02-23T11:21:34;9.30;1.00
23267;DHT22;11802;53.160;8.214;2024-02-23T11:24:03;9.30;1.00
23267;DHT22;11802;53.160;8.214;2024-02-23T11:26:29;9.20;99.90
23267;DHT22;11802;53.160;8.214;2024-02-23T11:28:55;9.30;1.00
23267;DHT22;11802;53.160;8.214;2024-02-23T11:31:24;9.20;1.00
23267;DHT22;11802;53.160;8.214;2024-02-23T11:33:55;9.10;1.00
23267;DHT22;11802;53.160;8.214;2024-02-23T11:36:27;9.10;1.00
23267;DHT22;11802;53.160;8.214;2024-02-23T11:38:53;9.10;1.00
23267;DHT22;11802;53.160;8.214;2024-02-23T11:41:23;9.00;12.90
23267;DHT22;11802;53.160;8.214;2024-02-23T11:43:49;8.80;1.00
23267;DHT22;11802;53.160;8.214;2024-02-23T11:46:16;8.80;1.00
23267;DHT22;11802;53.160;8.214;2024-02-23T11:48:42;8.60;99.90
23267;DHT22;11802;53.160;8.214;2024-02-23T11:51:09;8.60;1.00
23267;DHT22;11802;53.160;8.214;2024-02-23T11:53:36;8.60;99.90
23267;DHT22;11802;53.160;8.214;2024-02-23T11:56:04;8.60;99.90
23267;DHT22;11802;53.160;8.214;2024-02-23T11:58:30;8.50;1.00
23267;DHT22;11802;53.160;8.214;2024-02-23T12:00:56;8.50;1.00
23267;DHT22;11802;53.160;8.214;2024-02-23T12:03:22;8.50;99.90
23267;DHT22;11802;53.160;8.214;2024-02-23T12:05:50;8.50;99.90
23267;DHT22;11802;53.160;8.214;2024-02-23T12:08:16;8.50;1.00
23267;DHT22;11802;53.160;8.214;2024-02-23T12:10:42;8.50;1.00
23267;DHT22;11802;53.160;8.214;2024-02-23T12:13:08;8.60;1.00
23267;DHT22;11802;53.160;8.214;2024-02-23T12:15:34;8.60;1.00
23267;DHT22;11802;53.160;8.214;2024-02-23T12:17:59;8.60;1.00
23267;DHT22;11802;53.160;8.214;2024-02-23T12:20:25;8.60;99.90
23267;DHT22;11802;53.160;8.214;2024-02-23T12:22:54;8.60;99.90
23267;DHT22;11802;53.160;8.214;2024-02-23T12:25:21;8.80;1.00
23267;DHT22;11802;53.160;8.214;2024-02-23T12:27:46;9.00;1.00
23267;DHT22;11802;53.160;8.214;2024-02-23T12:30:15;9.20;1.00
23267;DHT22;11802;53.160;8.214;2024-02-23T12:32:42;9.40;1.00
23267;DHT22;11802;53.160;8.214;2024-02-23T12:35:11;9.40;1.00
23267;DHT22;11802;53.160;8.214;2024-02-23T12:37:37;9.50;99.90
23267;DHT22;11802;53.160;8.214;2024-02-23T12:40:03;9.70;1.00
23267;DHT22;11802;53.160;8.214;2024-02-23T12:42:28;10.00;1.00
23267;DHT22;11802;53.160;8.214;2024-02-23T12:44:54;10.10;1.00
23267;DHT22;11802;53.160;8.214;2024-02-23T12:47:20;10.20;1.00
23267;DHT22;11802;53.160;8.214;2024-02-23T12:49:45;10.20;99.90
23267;DHT22;11802;53.160;8.214;2024-02-23T12:52:12;10.10;1.00
23267;DHT22;11802;53.160;8.214;2024-02-23T12:54:37;10.20;99.90
23267;DHT22;11802;53.160;8.214;2024-02-23T12:57:03;10.30;99.90
23267;DHT22;11802;53.160;8.214;2024-02-23T12:59:29;10.40;1.00
23267;DHT22;11802;53.160;8.214;2024-02-23T13:01:54;10.40;99.90
23267;DHT22;11802;53.160;8.214;2024-02-23T13:04:20;10.20;99.90
23267;DHT22;11802;53.160;8.214;2024-02-23T13:06:45;10.20;99.90
23267;DHT22;11802;53.160;8.214;2024-02-23T13:09:12;10.20;99.90
23267;DHT22;11802;53.160;8.214;2024-02-23T13:11:40;10.20;99.90
23267;DHT22;11802;53.160;8.214;2024-02-23T13:14:06;10.10;99.90
23267;DHT22;11802;53.160;8.214;2024-02-23T13:16:31;9.80;99.90
23267;DHT22;11802;53.160;8.214;2024-02-23T13:18:57;9.70;1.00
23267;DHT22;11802;53.160;8.214;2024-02-23T13:21:22;9.50;99.90
23267;DHT22;11802;53.160;8.214;2024-02-23T13:23:49;9.50;1.00
23267;DHT22;11802;53.160;8.214;2024-02-23T13:26:15;9.50;92.80
23267;DHT22;11802;53.160;8.214;2024-02-23T13:28:43;9.40;1.00
23267;DHT22;11802;53.160;8.214;2024-02-23T13:31:10;9.40;1.00
23267;DHT22;11802;53.160;8.214;2024-02-23T13:33:36;9.40;1.00
23267;DHT22;11802;53.160;8.214;2024-02-23T13:36:01;9.30;1.00
23267;DHT22;11802;53.160;8.214;2024-02-23T13:38:27;9.20;14.50
23267;DHT22;11802;53.160;8.214;2024-02-23T13:40:52;9.20;99.90
23267;DHT22;11802;53.160;8.214;2024-02-23T13:43:18;9.00;99.90
23267;DHT22;11802;53.160;8.214;2024-02-23T13:45:52;9.10;1.00
23267;DHT22;11802;53.160;8.214;2024-02-23T13:48:18;9.10;1.00
23267;DHT22;11802;53.160;8.214;2024-02-23T13:50:45;9.20;1.00
23267;DHT22;11802;53.160;8.214;2024-02-23T13:53:11;9.20;1.00
23267;DHT22;11802;53.160;8.214;2024-02-23T13:55:38;9.10;1.00
23267;DHT22;11802;53.160;8.214;2024-02-23T13:58:04;9.00;1.00
23267;DHT22;11802;53.160;8.214;2024-02-23T14:00:29;8.80;99.90
23267;DHT22;11802;53.160;8.214;2024-02-23T14:02:55;8.90;99.90
23267;DHT22;11802;53.160;8.214;2024-02-23T14:05:21;8.90;99.90
23267;DHT22;11802;53.160;8.214;2024-02-23T14:07:47;8.90;1.00
23267;DHT22;11802;53.160;8.214;2024-02-23T14:10:13;8.80;1.00
23267;DHT22;11802;53.160;8.214;2024-02-23T14:12:40;8.80;99.90
23267;DHT22;11802;53.160;8.214;2024-02-23T14:15:06;8.80;99.90
23267;DHT22;11802;53.160;8.214;2024-02-23T14:17:32;8.70;29.30
23267;DHT22;11802;53.160;8.214;2024-02-23T14:19:57;8.70;99.90
23267;DHT22;11802;53.160;8.214;2024-02-23T14:22:23;8.70;1.00
23267;DHT22;11802;53.160;8.214;2024-02-23T14:24:48;8.70;1.00
23267;DHT22;11802;53.160;8.214;2024-02-23T14:27:14;8.70;1.00
23267;DHT22;11802;53.160;8.214;2024-02-23T14:29:39;8.60;1.00
23267;DHT22;11802;53.160;8.214;2024-02-23T14:32:05;8.60;99.90
23267;DHT22;11802;53.160;8.214;2024-02-23T14:34:31;8.70;99.90
23267;DHT22;11802;53.160;8.214;2024-02-23T14:36:59;8.70;1.00
23267;DHT22;11802;53.160;8.214;2024-02-23T14:39:24;8.80;99.90
23267;DHT22;11802;53.160;8.214;2024-02-23T14:41:50;8.70;99.90
23267;DHT22;11802;53.160;8.214;2024-02-23T14:44:15;8.80;99.90
23267;DHT22;11802;53.160;8.214;2024-02-23T14:46:41;8.90;99.90
23267;DHT22;11802;53.160;8.214;2024-02-23T14:49:07;8.90;1.00
23267;DHT22;11802;53.160;8.214;2024-02-23T14:51:32;8.90;68.50
23267;DHT22;11802;53.160;8.214;2024-02-23T14:53:59;8.90;1.00
23267;DHT22;11802;53.160;8.214;2024-02-23T14:56:27;8.90;49.50
23267;DHT22;11802;53.160;8.214;2024-02-23T14:58:53;8.80;99.90
23267;DHT22;11802;53.160;8.214;2024-02-23T15:01:18;8.80;99.90
23267;DHT22;11802;53.160;8.214;2024-02-23T15:03:44;8.70;1.00
23267;DHT22;11802;53.160;8.214;2024-02-23T15:06:09;8.70;21.60
23267;DHT22;11802;53.160;8.214;2024-02-23T15:08:36;8.80;1.00
23267;DHT22;11802;53.160;8.214;2024-02-23T15:11:02;8.70;99.90
23267;DHT22;11802;53.160;8.214;2024-02-23T15:13:27;8.70;99.90
23267;DHT22;11802;53.160;8.214;2024-02-23T15:15:53;8.70;99.90
23267;DHT22;11802;53.160;8.214;2024-02-23T15:18:19;8.70;99.90
23267;DHT22;11802;53.160;8.214;2024-02-23T15:20:45;8.70;1.00
23267;DHT22;11802;53.160;8.214;2024-02-23T15:23:12;8.70;1.00
23267;DHT22;11802;53.160;8.214;2024-02-23T15:25:38;8.80;1.00
23267;DHT22;11802;53.160;8.214;2024-02-23T15:28:04;8.80;1.00
23267;DHT22;11802;53.160;8.214;2024-02-23T15:30:30;8.80;1.00
23267;DHT22;11802;53.160;8.214;2024-02-23T15:32:55;8.80;1.00
23267;DHT22;11802;53.160;8.214;2024-02-23T15:35:21;8.80;99.90
23267;DHT22;11802;53.160;8.214;2024-02-23T15:37:46;8.80;1.00
23267;DHT22;11802;53.160;8.214;2024-02-23T15:40:12;8.80;99.90
23267;DHT22;11802;53.160;8.214;2024-02-23T15:42:38;8.80;99.90
23267;DHT22;11802;53.160;8.214;2024-02-23T15:45:04;8.80;1.00
23267;DHT22;11802;53.160;8.214;2024-02-23T15:47:33;8.70;99.90